Time;durP1;ratioP1;P1;durP2;ratioP2;P2;SDS_P1;SDS_P2;PMS_P1;PMS_P2;Temp;Humidity;BMP_temperature;BMP_pressure;BME280_temperature;BME280_humidity;BME280_pressure;Samples;Min_cycle;Max_cycle;Signal;HPM_P1;HPM_P2
2024/04/09 00:02:15;;;;;;;14.70;6.28;;;16.50;83.10;;;;;;5349846;26;19993;-76
2024/04/09 00:04:41;;;;;;;21.38;6.65;;;16.50;86.10;;;;;;5349587;26;20066;-76
2024/04/09 00:07:08;;;;;;;25.40;6.97;;;16.50;91.70;;;;;;5350102;26;20058;-76
2024/04/09 00:09:42;;;;;;;15.98;5.82;;;16.40;92.80;;;;;;5349762;26;20489;-76
2024/04/09 00:12:09;;;;;;;19.55;6.00;;;16.40;94.10;;;;;;5349545;26;20116;-75
2024/04/09 00:14:37;;;;;;;19.40;6.18;;;16.30;83.70;;;;;;5349715;26;20012;-76
2024/04/09 00:17:05;;;;;;;15.45;5.72;;;16.40;65.20;;;;;;5349495;26;20327;-75
2024/04/09 00:19:31;;;;;;;15.32;5.90;;;16.40;57.00;;;;;;5349593;26;20000;-76
2024/04/09 00:21:57;;;;;;;22.63;5.85;;;16.40;46.20;;;;;;5349980;26;20061;-76
2024/04/09 00:24:23;;;;;;;17.33;5.28;;;16.50;19.30;;;;;;5349255;26;20071;-76
2024/04/09 00:26:48;;;;;;;17.02;5.10;;;16.70;13.00;;;;;;5349239;26;19993;-76
2024/04/09 00:29:14;;;;;;;16.83;5.50;;;16.70;3.30;;;;;;5349633;26;19993;-76
2024/04/09 00:31:40;;;;;;;19.15;5.63;;;16.70;19.10;;;;;;5349099;26;20000;-76
2024/04/09 00:34:06;;;;;;;15.77;5.35;;;16.70;31.60;;;;;;5349294;26;20013;-75
2024/04/09 00:36:33;;;;;;;15.32;5.80;;;16.60;21.70;;;;;;5349103;26;20001;-75
2024/04/09 00:39:00;;;;;;;14.77;4.85;;;16.60;27.00;;;;;;5349284;26;20000;-76
2024/04/09 00:41:26;;;;;;;23.52;5.43;;;16.60;40.90;;;;;;5349315;26;20457;-76
2024/04/09 00:43:51;;;;;;;15.35;5.63;;;16.50;34.80;;;;;;5348981;26;20439;-76
2024/04/09 00:46:19;;;;;;;22.38;6.38;;;16.50;32.50;;;;;;5348522;26;20001;-76
2024/04/09 00:48:45;;;;;;;16.73;5.60;;;16.50;23.60;;;;;;5348728;26;20442;-76
2024/04/09 00:51:14;;;;;;;18.73;5.82;;;16.60;13.20;;;;;;5348718;26;20470;-76
2024/04/09 00:53:43;;;;;;;15.95;6.07;;;16.60;14.60;;;;;;5349023;26;20000;-76
2024/04/09 00:56:08;;;;;;;16.08;5.50;;;16.60;16.10;;;;;;5349126;26;19993;-76
2024/04/09 00:58:34;;;;;;;16.80;6.13;;;16.60;11.00;;;;;;5348681;26;20004;-75
2024/04/09 01:01:00;;;;;;;17.42;5.22;;;16.60;23.60;;;;;;5348635;26;20411;-76
2024/04/09 01:03:26;;;;;;;18.70;5.72;;;16.60;40.90;;;;;;5348475;26;20001;-76
2024/04/09 01:05:53;;;;;;;17.92;5.85;;;16.50;34.80;;;;;;5348094;26;20004;-75
2024/04/09 01:08:18;;;;;;;18.10;5.72;;;16.50;18.00;;;;;;5348194;26;20001;-76
2024/04/09 01:10:44;;;;;;;20.98;5.22;;;16.60;1.00;;;;;;5348342;26;20066;-76
2024/04/09 01:13:09;;;;;;;21.05;5.00;;;16.70;1.00;;;;;;5348242;26;19999;-76
2024/04/09 01:15:36;;;;;;;22.33;5.40;;;16.70;1.00;;;;;;5348151;26;19997;-76
2024/04/09 01:18:03;;;;;;;18.92;5.20;;;16.80;1.00;;;;;;5348625;26;20000;-75
2024/04/09 01:20:28;;;;;;;21.75;5.22;;;16.70;1.00;;;;;;5348063;26;20005;-76
2024/04/09 01:22:54;;;;;;;17.35;4.47;;;16.80;1.00;;;;;;5348467;26;19989;-76
2024/04/09 01:25:20;;;;;;;23.13;5.47;;;17.00;1.00;;;;;;5348136;26;19992;-76
2024/04/09 01:27:46;;;;;;;20.70;5.05;;;17.10;1.00;;;;;;5348133;26;20004;-76
2024/04/09 01:30:12;;;;;;;16.52;4.88;;;17.30;99.90;;;;;;5348031;26;19996;-75
2024/04/09 01:32:40;;;;;;;22.35;5.07;;;17.40;99.90;;;;;;5348321;26;20524;-76
2024/04/09 01:35:06;;;;;;;23.88;4.90;;;17.50;99.90;;;;;;5348004;26;19989;-76
2024/04/09 01:37:39;;;;;;;16.30;4.40;;;17.40;99.90;;;;;;5347819;26;19993;-76
2024/04/09 01:40:05;;;;;;;26.88;5.60;;;17.50;99.90;;;;;;5348283;26;19989;-76
2024/04/09 01:42:31;;;;;;;25.08;4.97;;;18.00;1.00;;;;;;5347959;26;19993;-75
2024/04/09 01:44:57;;;;;;;37.15;5.40;;;18.60;1.00;;;;;;5347983;26;20304;-76
2024/04/09 01:47:22;;;;;;;35.10;5.82;;;19.80;99.90;;;;;;5348207;26;20004;-76
2024/04/09 01:49:48;;;;;;;25.63;5.65;;;20.20;99.90;;;;;;5348154;26;19996;-75
2024/04/09 01:52:14;;;;;;;33.08;6.03;;;20.20;99.90;;;;;;5347875;26;20004;-76
2024/04/09 01:54:48;;;;;;;36.58;6.18;;;19.90;1.00;;;;;;5348438;26;20326;-76
2024/04/09 01:57:14;;;;;;;37.42;6.05;;;19.60;1.00;;;;;;5348049;26;19997;-76
2024/04/09 01:59:41;;;;;;;29.60;5.40;;;19.30;1.00;;;;;;5347609;26;20040;-75
2024/04/09 02:02:07;;;;;;;38.38;5.88;;;19.10;99.90;;;;;;5348211;26;19989;-76
2024/04/09 02:04:33;;;;;;;40.40;6.47;;;19.30;99.90;;;;;;5347656;26;20003;-76
2024/04/09 02:06:59;;;;;;;29.10;5.72;;;19.30;69.30;;;;;;5347557;26;20349;-76
2024/04/09 02:09:26;;;;;;;30.00;6.03;;;19.20;1.00;;;;;;5347752;26;19992;-76
2024/04/09 02:11:52;;;;;;;38.95;6.95;;;19.20;1.00;;;;;;5347580;26;20000;-76
2024/04/09 02:14:18;;;;;;;24.85;6.10;;;19.30;1.00;;;;;;5347385;26;19993;-76
2024/04/09 02:16:43;;;;;;;32.72;5.57;;;19.20;1.00;;;;;;5346419;26;20001;-76
2024/04/09 02:19:09;;;;;;;21.40;5.00;;;19.10;1.00;;;;;;5347277;26;20392;-76
2024/04/09 02:21:35;;;;;;;28.65;5.70;;;19.00;1.00;;;;;;5347255;26;20000;-76
2024/04/09 02:24:01;;;;;;;36.72;6.25;;;18.70;1.00;;;;;;5347455;26;19993;-76
2024/04/09 02:26:29;;;;;;;28.60;4.45;;;18.70;1.00;;;;;;5347151;26;19993;-76
2024/04/09 02:28:55;;;;;;;21.23;5.13;;;18.70;1.00;;;;;;5347046;26;19996;-76
2024/04/09 02:31:20;;;;;;;23.38;4.60;;;18.60;43.20;;;;;;5347457;26;20319;-76
2024/04/09 02:33:46;;;;;;;23.85;5.20;;;18.40;99.90;;;;;;5347212;26;19989;-76
2024/04/09 02:36:12;;;;;;;19.70;5.40;;;18.30;99.90;;;;;;5347363;26;19993;-77
2024/04/09 02:38:37;;;;;;;17.55;5.25;;;18.00;99.90;;;;;;5346897;26;20001;-76
2024/04/09 02:41:05;;;;;;;22.70;5.25;;;17.90;1.00;;;;;;5347306;26;20001;-75
2024/04/09 02:43:31;;;;;;;24.92;5.05;;;17.70;99.90;;;;;;5346953;26;20520;-76
2024/04/09 02:45:58;;;;;;;25.90;6.10;;;17.60;11.50;;;;;;5347184;26;19992;-75
2024/04/09 02:48:24;;;;;;;30.67;6.07;;;17.40;99.90;;;;;;5347406;26;20000;-76
2024/04/09 02:50:53;;;;;;;29.15;5.07;;;17.30;99.90;;;;;;5347304;26;20052;-76
2024/04/09 02:53:19;;;;;;;27.63;5.68;;;17.10;75.90;;;;;;5347695;26;19993;-76
2024/04/09 02:55:46;;;;;;;21.25;5.03;;;17.10;1.00;;;;;;5347271;26;20067;-76
2024/04/09 02:58:12;;;;;;;19.15;5.15;;;17.00;1.00;;;;;;5347142;26;20315;-76
2024/04/09 03:00:38;;;;;;;22.30;5.50;;;17.00;37.20;;;;;;5347475;26;20062;-76
2024/04/09 03:03:04;;;;;;;23.95;5.60;;;16.90;1.00;;;;;;5347192;26;19997;-75
2024/04/09 03:05:32;;;;;;;28.17;6.25;;;16.80;99.90;;;;;;5346982;26;20004;-76
2024/04/09 03:07:58;;;;;;;26.50;6.22;;;16.70;99.90;;;;;;5346999;26;20004;-76
2024/04/09 03:10:26;;;;;;;21.27;5.82;;;16.60;1.00;;;;;;5346985;26;19997;-76
2024/04/09 03:12:52;;;;;;;25.55;6.18;;;16.60;1.00;;;;;;5346692;26;19997;-76
2024/04/09 03:15:17;;;;;;;24.55;5.50;;;16.50;1.00;;;;;;5347080;26;20432;-76
2024/04/09 03:17:43;;;;;;;23.50;5.70;;;16.50;33.30;;;;;;5346700;26;20451;-76
2024/04/09 03:20:11;;;;;;;24.33;5.57;;;16.40;99.90;;;;;;5346362;26;20331;-76
2024/04/09 03:22:38;;;;;;;29.33;6.50;;;16.40;99.90;;;;;;5346966;26;20470;-76
2024/04/09 03:25:03;;;;;;;25.52;5.88;;;16.40;99.90;;;;;;5346567;26;19993;-75
2024/04/09 03:27:29;;;;;;;25.55;6.78;;;16.40;99.90;;;;;;5348157;26;20004;-76
2024/04/09 03:29:55;;;;;;;24.88;6.13;;;16.30;99.90;;;;;;5350006;26;20067;-76
2024/04/09 03:32:21;;;;;;;19.63;6.25;;;16.20;99.90;;;;;;5349946;26;20389;-76
2024/04/09 03:34:46;;;;;;;27.08;6.65;;;16.30;99.90;;;;;;5349918;26;19996;-76
2024/04/09 03:37:12;;;;;;;22.27;5.78;;;16.30;99.90;;;;;;5349531;26;20096;-76
2024/04/09 03:39:37;;;;;;;22.55;5.85;;;16.20;99.90;;;;;;5349465;26;20000;-76
2024/04/09 03:42:04;;;;;;;23.35;6.28;;;16.20;99.90;;;;;;5349457;26;19989;-76
2024/04/09 03:44:29;;;;;;;17.80;5.65;;;16.20;1.00;;;;;;5349692;26;19999;-76
2024/04/09 03:46:56;;;;;;;15.90;5.50;;;16.10;1.00;;;;;;5349700;26;20369;-76
2024/04/09 03:49:22;;;;;;;21.02;7.15;;;16.00;1.00;;;;;;5349807;26;20025;-76
2024/04/09 03:51:47;;;;;;;27.00;6.60;;;16.00;1.00;;;;;;5349846;26;19993;-76
2024/04/09 03:54:13;;;;;;;23.08;6.43;;;16.00;1.00;;;;;;5349748;26;20005;-76
2024/04/09 03:56:38;;;;;;;19.90;5.57;;;16.00;1.00;;;;;;5350313;26;19993;-76
2024/04/09 03:59:06;;;;;;;18.02;5.68;;;16.00;1.00;;;;;;5349673;26;19993;-76
2024/04/09 04:01:31;;;;;;;21.73;6.28;;;16.00;1.00;;;;;;5349557;26;20001;-76
2024/04/09 04:03:57;;;;;;;29.23;6.40;;;16.00;1.00;;;;;;5349562;26;20079;-76
2024/04/09 04:06:22;;;;;;;18.92;6.63;;;16.00;1.00;;;;;;5349306;26;20400;-76
2024/04/09 04:08:48;;;;;;;21.30;6.18;;;16.00;1.00;;;;;;5349585;26;19989;-76
2024/04/09 04:11:14;;;;;;;23.20;6.78;;;16.00;1.00;;;;;;5349382;26;20004;-76
2024/04/09 04:13:41;;;;;;;23.50;6.38;;;15.90;12.50;;;;;;5349663;26;20450;-76
2024/04/09 04:16:12;;;;;;;22.08;6.30;;;15.80;52.00;;;;;;5349580;26;20000;-75
2024/04/09 04:18:43;;;;;;;23.08;5.93;;;15.70;56.20;;;;;;5349431;26;20004;-76
2024/04/09 04:21:13;;;;;;;20.60;6.25;;;15.60;64.50;;;;;;5349741;26;20001;-75
2024/04/09 04:23:40;;;;;;;22.17;6.15;;;15.50;74.20;;;;;;5349688;26;19993;-74
2024/04/09 04:26:09;;;;;;;15.88;5.60;;;15.50;78.40;;;;;;5349377;26;19997;-75
2024/04/09 04:28:37;;;;;;;19.80;6.43;;;15.50;80.90;;;;;;5349553;26;19993;-76
2024/04/09 04:31:06;;;;;;;22.27;6.60;;;15.50;66.80;;;;;;5349684;26;20332;-75
2024/04/09 04:33:31;;;;;;;22.63;6.28;;;15.50;60.10;;;;;;5349228;26;20071;-75
2024/04/09 04:35:57;;;;;;;26.42;7.03;;;15.50;61.40;;;;;;5349255;26;20000;-76
2024/04/09 04:38:23;;;;;;;23.48;6.53;;;15.50;88.10;;;;;;5348789;26;19996;-75
2024/04/09 04:40:49;;;;;;;15.98;6.65;;;15.40;94.40;;;;;;5348856;26;19991;-75
2024/04/09 04:43:15;;;;;;;26.23;6.90;;;15.50;84.80;;;;;;5349334;26;20446;-75
2024/04/09 04:45:42;;;;;;;23.75;6.70;;;15.40;90.40;;;;;;5348767;26;20013;-75
2024/04/09 04:48:07;;;;;;;17.95;6.32;;;15.30;99.90;;;;;;5348989;26;20434;-75
2024/04/09 04:50:33;;;;;;;28.70;7.97;;;15.30;99.90;;;;;;5348643;26;19997;-76
2024/04/09 04:53:01;;;;;;;19.85;6.65;;;15.30;99.90;;;;;;5348510;26;19996;-75
2024/04/09 04:55:27;;;;;;;23.42;7.57;;;15.20;99.90;;;;;;5348689;26;20001;-75
2024/04/09 04:57:52;;;;;;;24.70;7.93;;;15.20;99.90;;;;;;5348603;26;20021;-75
2024/04/09 05:00:18;;;;;;;24.55;7.38;;;15.20;99.90;;;;;;5348548;26;20004;-75
2024/04/09 05:02:44;;;;;;;26.52;8.52;;;15.10;99.90;;;;;;5348375;26;19999;-76
2024/04/09 05:05:10;;;;;;;27.30;8.05;;;15.10;99.90;;;;;;5348167;26;20005;-75
2024/04/09 05:07:36;;;;;;;22.73;7.53;;;15.10;99.90;;;;;;5348279;26;20000;-75
2024/04/09 05:10:04;;;;;;;31.83;8.50;;;15.10;99.90;;;;;;5348335;26;20327;-76
2024/04/09 05:12:29;;;;;;;31.05;9.15;;;15.00;99.90;;;;;;5348678;26;19997;-76
2024/04/09 05:14:55;;;;;;;25.17;8.65;;;15.00;99.90;;;;;;5348410;26;20412;-75
2024/04/09 05:17:21;;;;;;;31.42;8.57;;;15.00;99.90;;;;;;5348351;26;19993;-75
2024/04/09 05:19:50;;;;;;;25.70;7.78;;;15.00;99.90;;;;;;5348335;26;20327;-75
2024/04/09 05:22:17;;;;;;;20.00;7.13;;;15.10;99.90;;;;;;5348167;26;20356;-75
2024/04/09 05:24:44;;;;;;;27.50;8.20;;;15.10;99.90;;;;;;5348224;26;19989;-75
2024/04/09 05:27:10;;;;;;;23.05;8.48;;;15.10;99.90;;;;;;5346036;26;20005;-75
2024/04/09 05:29:35;;;;;;;27.00;9.13;;;15.10;99.90;;;;;;5347535;26;20011;-75
2024/04/09 05:32:01;;;;;;;26.63;7.43;;;15.00;99.90;;;;;;5348215;26;20004;-75
2024/04/09 05:34:27;;;;;;;26.65;8.50;;;15.10;99.90;;;;;;5347721;26;20000;-75
2024/04/09 05:36:52;;;;;;;23.67;7.90;;;15.00;99.90;;;;;;5347211;26;20001;-75
2024/04/09 05:39:19;;;;;;;27.40;7.25;;;15.00;99.90;;;;;;5347794;26;20439;-75
2024/04/09 05:41:45;;;;;;;17.65;6.25;;;15.10;99.90;;;;;;5348029;26;19993;-75
2024/04/09 05:44:11;;;;;;;26.23;6.95;;;15.10;99.90;;;;;;5347719;26;19989;-75
2024/04/09 05:46:39;;;;;;;20.60;6.25;;;15.10;99.90;;;;;;5346721;26;19993;-76
2024/04/09 05:49:05;;;;;;;23.77;6.40;;;15.20;99.90;;;;;;5347202;26;20128;-75
2024/04/09 05:51:31;;;;;;;21.10;6.03;;;15.10;99.90;;;;;;5343491;26;20008;-75
2024/04/09 05:53:57;;;;;;;17.75;5.65;;;15.10;99.90;;;;;;5333178;26;20044;-75
2024/04/09 05:56:22;;;;;;;18.33;5.72;;;15.10;99.90;;;;;;5347252;26;20338;-75
2024/04/09 05:58:48;;;;;;;13.18;4.72;;;15.20;99.90;;;;;;5353127;26;20017;-75
2024/04/09 06:01:14;;;;;;;20.23;5.65;;;15.20;99.90;;;;;;5370335;26;20008;-75
2024/04/09 06:03:40;;;;;;;19.67;5.65;;;15.20;99.90;;;;;;5346608;26;20001;-75
2024/04/09 06:06:06;;;;;;;17.70;5.35;;;15.20;99.90;;;;;;5346762;26;20015;-75
2024/04/09 06:08:32;;;;;;;18.10;5.25;;;15.20;99.90;;;;;;5347234;26;20013;-75
2024/04/09 06:10:58;;;;;;;20.63;5.55;;;15.20;99.90;;;;;;5346485;26;20005;-75
2024/04/09 06:13:24;;;;;;;15.77;5.05;;;15.20;99.90;;;;;;5346645;26;20008;-75
2024/04/09 06:15:50;;;;;;;20.02;5.45;;;15.10;99.90;;;;;;5346474;26;20015;-76
2024/04/09 06:18:17;;;;;;;16.92;5.10;;;15.10;99.90;;;;;;5347411;26;19989;-75
2024/04/09 06:20:44;;;;;;;18.05;5.35;;;15.20;99.90;;;;;;5346313;26;20016;-75
2024/04/09 06:23:10;;;;;;;16.17;4.75;;;15.20;99.90;;;;;;5346676;26;20073;-74
2024/04/09 06:25:36;;;;;;;20.15;5.43;;;15.10;99.90;;;;;;5345907;26;20015;-75
2024/04/09 06:28:03;;;;;;;17.25;4.70;;;15.10;99.90;;;;;;5347417;26;19993;-75
2024/04/09 06:30:29;;;;;;;20.63;5.00;;;15.10;99.90;;;;;;5347023;26;20004;-75
2024/04/09 06:32:54;;;;;;;12.50;5.05;;;15.10;99.90;;;;;;5347037;26;20015;-76
2024/04/09 06:35:20;;;;;;;18.90;5.43;;;15.00;99.90;;;;;;5347017;26;20004;-75
2024/04/09 06:37:46;;;;;;;15.82;4.30;;;15.10;99.90;;;;;;5346819;26;20001;-76
2024/04/09 06:40:11;;;;;;;18.83;5.25;;;15.10;99.90;;;;;;5346496;26;20370;-75
2024/04/09 06:42:37;;;;;;;13.48;4.43;;;15.10;99.90;;;;;;5346483;26;20488;-75
2024/04/09 06:45:03;;;;;;;12.90;4.22;;;15.10;99.90;;;;;;5346654;26;19989;-76
2024/04/09 06:47:29;;;;;;;13.63;4.85;;;15.10;99.90;;;;;;5345969;26;19997;-75
2024/04/09 06:49:56;;;;;;;16.08;4.88;;;15.10;99.90;;;;;;5345325;26;20497;-75
2024/04/09 06:52:21;;;;;;;10.68;4.03;;;15.10;99.90;;;;;;5375028;26;20334;-77
2024/04/09 06:54:48;;;;;;;13.60;4.50;;;15.10;99.90;;;;;;5344696;26;20005;-74
2024/04/09 06:57:14;;;;;;;8.90;4.07;;;15.10;99.90;;;;;;5346142;26;20330;-75
2024/04/09 06:59:39;;;;;;;13.90;4.95;;;15.10;99.90;;;;;;5346325;26;20002;-75
2024/04/09 07:02:06;;;;;;;17.35;4.65;;;15.10;99.90;;;;;;5347097;26;20009;-76
2024/04/09 07:04:32;;;;;;;15.95;4.72;;;15.00;99.90;;;;;;5349450;26;20033;-76
2024/04/09 07:06:58;;;;;;;15.02;5.20;;;15.00;99.90;;;;;;5349839;26;20067;-76
2024/04/09 07:09:23;;;;;;;11.38;4.75;;;15.10;99.90;;;;;;5350131;26;20018;-75
2024/04/09 07:11:49;;;;;;;14.13;4.97;;;15.20;99.90;;;;;;5352095;26;20009;-74
2024/04/09 07:14:14;;;;;;;16.17;5.18;;;15.40;99.90;;;;;;5347499;26;20083;-76
2024/04/09 07:16:42;;;;;;;10.77;4.63;;;15.50;99.90;;;;;;5353440;26;19997;-75
2024/04/09 07:19:08;;;;;;;12.48;5.03;;;15.90;99.90;;;;;;5349562;26;20005;-76
2024/04/09 07:21:35;;;;;;;8.52;4.18;;;16.70;99.90;;;;;;5361790;26;20525;-76
2024/04/09 07:24:01;;;;;;;10.20;4.10;;;17.00;90.70;;;;;;5348834;26;20012;-76
2024/04/09 07:26:26;;;;;;;12.38;4.70;;;16.80;96.80;;;;;;5370577;26;20033;-75
2024/04/09 07:28:52;;;;;;;10.95;4.50;;;16.40;99.90;;;;;;5360644;26;20001;-75
2024/04/09 07:31:17;;;;;;;13.93;5.22;;;16.50;99.90;;;;;;5369273;26;19997;-75
2024/04/09 07:33:47;;;;;;;16.33;4.72;;;16.40;99.90;;;;;;5357503;26;20074;-76
2024/04/09 07:36:12;;;;;;;11.18;4.93;;;16.20;99.90;;;;;;5376377;26;20074;-76
2024/04/09 07:38:39;;;;;;;10.75;4.97;;;15.90;99.90;;;;;;5348934;26;20009;-76
2024/04/09 07:41:05;;;;;;;11.90;5.82;;;15.80;99.90;;;;;;5347591;26;20335;-76
2024/04/09 07:43:30;;;;;;;13.70;5.82;;;15.70;99.90;;;;;;5383435;26;20000;-76
2024/04/09 07:45:56;;;;;;;8.48;5.75;;;15.70;99.90;;;;;;5358282;26;20423;-75
2024/04/09 07:48:23;;;;;;;10.13;4.97;;;15.50;99.90;;;;;;5349862;26;20003;-75
2024/04/09 07:50:49;;;;;;;9.75;5.85;;;15.40;99.90;;;;;;5372369;26;19997;-74
2024/04/09 07:53:15;;;;;;;10.60;5.45;;;15.40;99.90;;;;;;5353307;26;20016;-75
2024/04/09 07:55:41;;;;;;;11.02;5.97;;;15.30;99.90;;;;;;5359068;26;20062;-75
2024/04/09 07:58:07;;;;;;;12.88;6.50;;;15.10;99.90;;;;;;5357854;26;20013;-76
2024/04/09 08:00:33;;;;;;;15.48;6.75;;;15.10;99.90;;;;;;5352871;26;20001;-77
2024/04/09 08:02:59;;;;;;;11.35;6.18;;;15.00;99.90;;;;;;5363349;26;20462;-75
2024/04/09 08:05:24;;;;;;;8.98;5.50;;;14.70;99.90;;;;;;5357421;26;20031;-77
2024/04/09 08:07:50;;;;;;;7.90;5.55;;;14.10;99.90;;;;;;5347806;26;20467;-77
2024/04/09 08:10:19;;;;;;;7.68;5.80;;;13.70;99.90;;;;;;5355806;26;20020;-75
2024/04/09 08:12:49;;;;;;;7.82;7.03;;;13.50;99.90;;;;;;5350223;26;20007;-75
2024/04/09 08:15:18;;;;;;;8.65;7.40;;;13.30;99.90;;;;;;5354733;26;20000;-75
2024/04/09 08:17:44;;;;;;;13.23;9.30;;;13.10;99.90;;;;;;5362922;26;20438;-75
2024/04/09 08:20:10;;;;;;;12.52;10.20;;;13.10;99.90;;;;;;5374831;26;20468;-76
2024/04/09 08:22:37;;;;;;;18.05;11.38;;;12.90;99.90;;;;;;5344586;26;19996;-78
2024/04/09 08:25:04;;;;;;;16.40;11.23;;;12.80;99.90;;;;;;5352386;26;20014;-77
2024/04/09 08:27:33;;;;;;;15.82;11.45;;;12.90;99.90;;;;;;5347246;26;20040;-77
2024/04/09 08:29:59;;;;;;;18.25;12.73;;;13.00;99.90;;;;;;5343643;26;20025;-75
2024/04/09 08:32:25;;;;;;;15.82;12.25;;;13.20;99.90;;;;;;5356628;26;20015;-75
2024/04/09 08:34:52;;;;;;;17.63;12.50;;;13.40;99.90;;;;;;5383817;26;20007;-76
2024/04/09 08:37:17;;;;;;;15.48;12.32;;;13.30;99.90;;;;;;5367513;26;20000;-75
2024/04/09 08:39:43;;;;;;;17.00;12.02;;;13.40;99.90;;;;;;5351816;26;20011;-76
2024/04/09 08:42:09;;;;;;;16.40;12.73;;;13.30;99.90;;;;;;5357348;26;20007;-75
2024/04/09 08:44:36;;;;;;;16.58;12.32;;;13.30;99.90;;;;;;5350372;26;20001;-76
2024/04/09 08:47:03;;;;;;;15.65;11.30;;;13.10;99.90;;;;;;5350679;26;20008;-75
2024/04/09 08:49:29;;;;;;;15.80;12.05;;;13.00;99.90;;;;;;5345225;26;20439;-75
2024/04/09 08:51:55;;;;;;;16.30;11.10;;;13.00;99.90;;;;;;5365771;26;20029;-74
2024/04/09 08:54:23;;;;;;;12.50;9.27;;;13.00;99.90;;;;;;5339464;26;20014;-76
2024/04/09 08:56:51;;;;;;;10.45;6.50;;;12.80;99.90;;;;;;5337876;26;20010;-75
2024/04/09 08:59:16;;;;;;;7.90;5.45;;;12.70;99.90;;;;;;5339348;26;20001;-75
2024/04/09 09:01:42;;;;;;;9.48;3.80;;;12.70;99.90;;;;;;5339463;26;20020;-74
2024/04/09 09:04:07;;;;;;;6.00;3.17;;;12.50;99.90;;;;;;5346071;26;20024;-76
2024/04/09 09:06:48;;;;;;;6.72;4.03;;;12.50;99.90;;;;;;5354717;26;20005;-75
2024/04/09 09:09:23;;;;;;;7.57;3.63;;;12.40;99.90;;;;;;5352455;26;20466;-75
2024/04/09 09:11:49;;;;;;;6.25;3.00;;;12.40;99.90;;;;;;5373949;26;20082;-75
2024/04/09 09:14:14;;;;;;;11.32;3.35;;;12.30;99.90;;;;;;5346788;26;20037;-75
2024/04/09 09:16:40;;;;;;;6.72;3.20;;;12.30;99.90;;;;;;5346028;26;20008;-74
2024/04/09 09:19:05;;;;;;;5.47;2.63;;;12.20;99.90;;;;;;5349392;26;20018;-75
2024/04/09 09:21:31;;;;;;;10.50;3.22;;;12.10;99.90;;;;;;5346391;26;20346;-75
2024/04/09 09:23:58;;;;;;;4.40;2.30;;;12.10;99.90;;;;;;5345296;26;20004;-74
2024/04/09 09:26:25;;;;;;;6.53;2.47;;;12.10;99.90;;;;;;5348356;26;20044;-76
2024/04/09 09:29:02;;;;;;;4.82;2.40;;;12.00;99.90;;;;;;5347332;26;20023;-75
2024/04/09 09:31:31;;;;;;;5.47;2.30;;;11.90;99.90;;;;;;5349162;26;20013;-76
2024/04/09 09:33:59;;;;;;;6.78;2.47;;;11.80;99.90;;;;;;5347605;26;20463;-75
2024/04/09 09:36:26;;;;;;;6.60;2.42;;;11.80;99.90;;;;;;5347961;26;20402;-75
2024/04/09 09:38:53;;;;;;;8.15;2.70;;;11.70;99.90;;;;;;5348041;26;19997;-75
2024/04/09 09:41:19;;;;;;;4.82;2.40;;;11.70;99.90;;;;;;5347594;26;20017;-75
2024/04/09 09:43:46;;;;;;;5.70;2.58;;;11.70;99.90;;;;;;5346519;26;20459;-76
2024/04/09 09:46:14;;;;;;;7.40;2.35;;;11.70;99.90;;;;;;5356071;26;19996;-77
2024/04/09 09:48:42;;;;;;;9.90;2.92;;;11.70;99.90;;;;;;5364399;26;20040;-75
2024/04/09 09:51:07;;;;;;;7.25;2.72;;;11.60;99.90;;;;;;5347925;26;19993;-75
2024/04/09 09:53:33;;;;;;;8.27;3.70;;;11.60;99.90;;;;;;5347658;26;20320;-76
2024/04/09 09:56:02;;;;;;;8.80;3.30;;;11.60;99.90;;;;;;5347778;26;20331;-75
2024/04/09 09:58:31;;;;;;;8.35;3.78;;;11.60;99.90;;;;;;5347628;26;19993;-76
2024/04/09 10:00:59;;;;;;;7.25;3.60;;;11.70;99.90;;;;;;5347226;26;20004;-75
2024/04/09 10:03:25;;;;;;;7.85;3.28;;;11.70;99.90;;;;;;5361562;26;20465;-75
2024/04/09 10:05:51;;;;;;;10.70;3.70;;;11.70;99.90;;;;;;5342418;26;20008;-74
2024/04/09 10:08:20;;;;;;;6.18;3.33;;;11.70;99.90;;;;;;5343813;26;20000;-75
2024/04/09 10:10:49;;;;;;;9.10;3.42;;;11.80;99.90;;;;;;5348465;26;20009;-75
2024/04/09 10:13:19;;;;;;;11.82;4.75;;;11.70;99.90;;;;;;5347153;26;20088;-75
2024/04/09 10:15:45;;;;;;;8.80;4.20;;;11.80;99.90;;;;;;5347246;26;20000;-76
2024/04/09 10:18:34;;;;;;;7.85;4.50;;;11.80;99.90;;;;;;5346603;26;20012;-76
2024/04/09 10:21:01;;;;;;;9.27;4.60;;;11.70;99.90;;;;;;5347155;26;20018;-76
2024/04/09 10:23:26;;;;;;;14.85;5.35;;;11.70;99.90;;;;;;5347076;26;20004;-75
2024/04/09 10:25:55;;;;;;;11.38;4.63;;;11.70;99.90;;;;;;5347112;26;20075;-75
2024/04/09 10:28:30;;;;;;;10.60;4.70;;;11.60;99.90;;;;;;5346887;26;20000;-74
2024/04/09 10:31:01;;;;;;;13.60;4.88;;;11.70;99.90;;;;;;5346835;26;20013;-76
2024/04/09 10:33:29;;;;;;;10.88;5.07;;;11.60;99.90;;;;;;5347232;26;20443;-75
2024/04/09 10:35:58;;;;;;;7.78;3.60;;;11.60;99.90;;;;;;5346702;26;19997;-74
2024/04/09 10:38:25;;;;;;;6.45;3.58;;;11.50;99.90;;;;;;5345171;26;19993;-74
2024/04/09 10:40:51;;;;;;;7.07;3.83;;;11.50;99.90;;;;;;5347895;26;19993;-74
2024/04/09 10:43:17;;;;;;;9.57;3.72;;;11.50;99.90;;;;;;5346394;26;20435;-75
2024/04/09 10:45:44;;;;;;;7.32;3.13;;;11.40;99.90;;;;;;5346885;26;19993;-74
2024/04/09 10:48:12;;;;;;;6.75;2.80;;;11.40;99.90;;;;;;5344966;26;20015;-74
2024/04/09 10:50:42;;;;;;;5.30;2.50;;;11.40;99.90;;;;;;5346899;26;20312;-75
2024/04/09 10:53:09;;;;;;;5.80;2.55;;;11.40;99.90;;;;;;5345790;26;20013;-74
2024/04/09 10:55:35;;;;;;;8.10;3.10;;;11.50;99.90;;;;;;5346460;26;20327;-75
2024/04/09 10:58:00;;;;;;;5.95;2.00;;;11.50;99.90;;;;;;5346329;26;20025;-75
2024/04/09 11:00:26;;;;;;;3.20;1.88;;;11.60;99.90;;;;;;5344482;26;20016;-75
2024/04/09 11:02:51;;;;;;;10.13;2.25;;;11.50;99.90;;;;;;5362418;26;19996;-75
2024/04/09 11:05:18;;;;;;;8.13;2.60;;;11.50;99.90;;;;;;5379509;26;20010;-74
2024/04/09 11:07:46;;;;;;;5.45;2.17;;;11.50;99.90;;;;;;5381266;26;20482;-75
2024/04/09 11:10:14;;;;;;;8.13;2.13;;;11.40;99.90;;;;;;5379795;26;20007;-74
2024/04/09 11:12:45;;;;;;;5.75;2.20;;;11.50;99.90;;;;;;5346288;26;20323;-75
2024/04/09 11:15:12;;;;;;;4.47;2.10;;;11.60;99.80;;;;;;5346554;26;20003;-75
2024/04/09 11:17:38;;;;;;;7.00;2.22;;;11.70;99.90;;;;;;5346528;26;20084;-75
2024/04/09 11:20:10;;;;;;;11.68;2.38;;;11.80;99.90;;;;;;5345856;26;20350;-74
2024/04/09 11:22:42;;;;;;;10.02;2.53;;;11.80;99.90;;;;;;5345559;26;20012;-75
2024/04/09 11:25:19;;;;;;;10.15;2.25;;;11.90;99.90;;;;;;5349724;26;20447;-75
2024/04/09 11:27:51;;;;;;;6.95;2.13;;;12.00;99.90;;;;;;5365363;26;20519;-76
2024/04/09 11:30:38;;;;;;;6.18;1.75;;;12.10;97.40;;;;;;5345409;26;20001;-75
2024/04/09 11:33:04;;;;;;;6.30;1.67;;;12.10;90.20;;;;;;5345665;26;19993;-75
2024/04/09 11:35:30;;;;;;;4.65;1.35;;;12.00;53.00;;;;;;5345332;26;20060;-75
2024/04/09 11:37:57;;;;;;;4.25;1.55;;;11.90;32.90;;;;;;5344296;26;20331;-75
2024/04/09 11:40:26;;;;;;;3.90;1.55;;;11.90;40.90;;;;;;5343239;26;20395;-75
2024/04/09 11:42:53;;;;;;;4.70;1.50;;;11.90;58.00;;;;;;5344763;26;20082;-74
2024/04/09 11:45:23;;;;;;;3.80;1.40;;;12.00;41.20;;;;;;5372710;26;20026;-74
2024/04/09 11:47:49;;;;;;;4.18;1.30;;;12.20;34.50;;;;;;5348974;26;20008;-75
2024/04/09 11:50:15;;;;;;;3.88;1.30;;;12.30;20.30;;;;;;5347068;26;20079;-75
2024/04/09 11:52:41;;;;;;;8.75;1.55;;;12.40;36.00;;;;;;5349147;26;19992;-75
2024/04/09 11:55:08;;;;;;;4.40;1.95;;;12.50;7.30;;;;;;5348897;26;20008;-76
2024/04/09 11:57:34;;;;;;;4.70;1.70;;;12.70;21.60;;;;;;5349060;26;20069;-76
2024/04/09 12:00:00;;;;;;;3.22;1.20;;;12.80;5.60;;;;;;5349137;26;20001;-75
2024/04/09 12:02:26;;;;;;;5.68;1.58;;;12.70;6.00;;;;;;5347806;26;20445;-74
2024/04/09 12:04:51;;;;;;;4.72;1.63;;;12.80;18.60;;;;;;5347920;26;20001;-75
2024/04/09 12:07:17;;;;;;;4.45;1.40;;;13.00;41.60;;;;;;5348726;26;20012;-75
2024/04/09 12:09:42;;;;;;;3.13;1.20;;;13.10;22.20;;;;;;5348880;26;20004;-75
2024/04/09 12:12:09;;;;;;;4.43;1.48;;;13.20;1.00;;;;;;5348806;26;20008;-74
2024/04/09 12:14:36;;;;;;;5.90;1.50;;;13.20;4.00;;;;;;5348923;26;19993;-76
2024/04/09 12:17:02;;;;;;;3.28;1.20;;;13.40;1.00;;;;;;5348658;26;20016;-76
2024/04/09 12:19:27;;;;;;;5.80;1.17;;;13.40;1.00;;;;;;5346633;26;20335;-76
2024/04/09 12:21:53;;;;;;;6.35;1.10;;;13.60;1.00;;;;;;5348019;26;20005;-75
2024/04/09 12:24:19;;;;;;;4.68;1.80;;;13.70;1.00;;;;;;5348402;26;19997;-76
2024/04/09 12:26:45;;;;;;;3.97;1.50;;;13.80;1.00;;;;;;5348670;26;20004;-75
2024/04/09 12:29:10;;;;;;;4.32;1.20;;;13.60;1.00;;;;;;5348571;26;20015;-76
2024/04/09 12:31:36;;;;;;;4.35;1.20;;;13.60;1.00;;;;;;5330318;26;20330;-76
2024/04/09 12:34:02;;;;;;;6.95;1.50;;;13.60;1.00;;;;;;5366841;26;20008;-76
2024/04/09 12:36:27;;;;;;;8.27;1.58;;;13.60;1.00;;;;;;5352345;26;20369;-74
2024/04/09 12:38:53;;;;;;;4.45;1.30;;;13.70;1.00;;;;;;5352326;26;20136;-74